Time;durP1;ratioP1;P1;durP2;ratioP2;P2;SDS_P1;SDS_P2;PMS_P1;PMS_P2;Temp;Humidity;BMP_temperature;BMP_pressure;BME280_temperature;BME280_humidity;BME280_pressure;Samples;Min_cycle;Max_cycle;Signal;HPM_P1;HPM_P2
2021/01/27 00:01:37;;;;;;;6.53;5.88;;;;;;;9.78;59.86;100649.53;5001001;27;109952;-61
2021/01/27 00:04:03;;;;;;;7.35;5.85;;;;;;;9.80;59.83;100651.97;5000196;27;101636;-61
2021/01/27 00:06:29;;;;;;;7.00;6.25;;;;;;;9.80;60.36;100651.97;5001827;27;113924;-61
2021/01/27 00:08:55;;;;;;;7.72;5.97;;;;;;;9.77;59.76;100653.31;5002351;27;98047;-60
2021/01/27 00:11:21;;;;;;;6.82;5.95;;;;;;;9.81;59.83;100642.81;5001272;27;128086;-61
2021/01/27 00:13:47;;;;;;;6.38;5.72;;;;;;;9.81;60.61;100654.41;5001890;27;126637;-60
2021/01/27 00:16:13;;;;;;;6.85;6.15;;;;;;;9.82;60.08;100658.75;4993176;27;110827;-61
2021/01/27 00:18:39;;;;;;;6.53;5.82;;;;;;;9.81;60.39;100651.72;4981609;27;125202;-61
2021/01/27 00:21:05;;;;;;;5.97;5.30;;;;;;;9.81;59.59;100649.03;4984869;27;128922;-61
2021/01/27 00:23:31;;;;;;;6.85;6.15;;;;;;;9.83;59.89;100659.56;4983056;27;123666;-61
2021/01/27 00:25:57;;;;;;;7.40;6.05;;;;;;;9.81;59.63;100661.69;4983591;27;112434;-61
2021/01/27 00:28:23;;;;;;;7.20;6.00;;;;;;;9.83;60.49;100657.66;5001609;27;127935;-61
2021/01/27 00:30:49;;;;;;;7.05;6.05;;;;;;;9.81;60.50;100659.78;5003938;27;128163;-60
2021/01/27 00:33:16;;;;;;;7.25;6.18;;;;;;;9.82;60.08;100658.75;5003134;27;109702;-62
2021/01/27 00:35:47;;;;;;;7.28;6.40;;;;;;;9.80;60.00;100655.47;4987878;27;97881;-61
2021/01/27 00:38:26;;;;;;;6.57;5.88;;;;;;;9.79;59.79;100650.38;5005057;27;107907;-60
2021/01/27 00:40:55;;;;;;;6.90;5.80;;;;;;;9.80;59.71;100646.59;4984855;28;122217;-60
2021/01/27 00:43:23;;;;;;;7.18;6.47;;;;;;;9.79;60.09;100650.38;4985474;28;97941;-61
2021/01/27 00:45:49;;;;;;;7.53;6.50;;;;;;;9.79;59.45;100658.44;4966915;28;105976;-61
2021/01/27 00:48:16;;;;;;;6.75;6.05;;;;;;;9.79;60.17;100648.47;4999371;27;108499;-61
2021/01/27 00:50:42;;;;;;;8.25;6.60;;;;;;;9.79;59.81;100656.56;4983884;28;125819;-60
2021/01/27 00:53:08;;;;;;;6.80;6.07;;;;;;;9.78;59.95;100654.91;4985470;27;98201;-61
2021/01/27 00:55:34;;;;;;;6.95;6.10;;;;;;;9.79;60.22;100655.75;4988312;27;114389;-61
2021/01/27 00:58:00;;;;;;;7.05;5.90;;;;;;;9.78;60.29;100659.50;5005652;27;98614;-61
2021/01/27 01:00:35;;;;;;;7.80;6.10;;;;;;;9.78;59.59;100662.19;5006527;27;98317;-60
2021/01/27 01:03:01;;;;;;;7.30;6.30;;;;;;;9.79;60.14;100669.22;5004944;27;119969;-60
2021/01/27 01:05:48;;;;;;;7.75;6.30;;;;;;;9.74;60.39;100667.25;4986691;27;109916;-61
2021/01/27 01:08:16;;;;;;;6.95;6.25;;;;;;;9.78;59.88;100668.38;5004599;27;98808;-60
2021/01/27 01:10:48;;;;;;;6.65;5.68;;;;;;;9.76;60.05;100673.22;5003382;27;98879;-61
2021/01/27 01:13:17;;;;;;;6.83;6.10;;;;;;;9.77;59.95;100669.44;4999997;27;98139;-61
2021/01/27 01:15:43;;;;;;;6.80;6.05;;;;;;;9.76;60.28;100667.84;4986306;27;98169;-59
2021/01/27 01:18:11;;;;;;;6.68;5.97;;;;;;;9.75;60.15;100655.44;4984944;28;99670;-60
2021/01/27 01:20:37;;;;;;;6.50;5.88;;;;;;;9.74;59.80;100653.00;4985202;27;119205;-60
2021/01/27 01:23:03;;;;;;;8.18;5.80;;;;;;;9.76;60.01;100656.25;4985218;28;101840;-61
2021/01/27 01:25:31;;;;;;;6.93;6.10;;;;;;;9.76;60.19;100653.56;4966332;28;106104;-61
2021/01/27 01:27:57;;;;;;;6.82;6.13;;;;;;;9.75;59.72;100660.84;4985246;27;98365;-61
2021/01/27 01:30:28;;;;;;;6.80;6.10;;;;;;;9.71;60.06;100659.72;4988658;27;98617;-61
2021/01/27 01:32:55;;;;;;;6.85;6.15;;;;;;;9.74;60.14;100655.69;5003052;27;103603;-61
2021/01/27 01:35:22;;;;;;;6.53;5.72;;;;;;;9.71;59.75;100657.03;5004586;27;98071;-61
2021/01/27 01:37:48;;;;;;;7.18;6.35;;;;;;;9.68;60.28;100654.84;4985292;27;98450;-62
2021/01/27 01:40:21;;;;;;;7.13;6.03;;;;;;;9.65;59.92;100655.34;5003424;27;98602;-60
2021/01/27 01:42:47;;;;;;;7.22;5.97;;;;;;;9.65;59.59;100662.63;5003665;27;110774;-60
2021/01/27 01:45:43;;;;;;;7.95;6.40;;;;;;;9.62;60.37;100655.84;5002786;27;118738;-60
2021/01/27 01:48:38;;;;;;;6.75;5.90;;;;;;;9.62;59.77;100650.47;4996082;27;98083;-60
2021/01/27 01:51:33;;;;;;;7.43;6.05;;;;;;;9.61;59.72;100653.44;4971396;27;120634;-61
2021/01/27 01:54:16;;;;;;;6.60;6.00;;;;;;;9.62;60.26;100647.78;5001030;27;117935;-61
2021/01/27 01:56:48;;;;;;;6.05;5.45;;;;;;;9.61;59.80;100642.66;4986391;27;97823;-60
2021/01/27 01:59:14;;;;;;;6.60;5.82;;;;;;;9.59;60.40;100653.72;5001129;27;98492;-60
2021/01/27 02:01:41;;;;;;;6.47;5.65;;;;;;;9.57;59.98;100647.75;4964839;28;128913;-60
2021/01/27 02:04:07;;;;;;;7.00;5.85;;;;;;;9.59;60.20;100638.38;4981998;27;118152;-61
2021/01/27 02:06:33;;;;;;;7.88;6.38;;;;;;;9.59;59.88;100645.63;4965816;28;97917;-60
2021/01/27 02:09:03;;;;;;;6.68;5.93;;;;;;;9.58;60.31;100644.78;4981610;28;127918;-61
2021/01/27 02:11:52;;;;;;;7.10;6.40;;;;;;;9.54;60.00;100653.63;4981474;27;122062;-60
2021/01/27 02:14:39;;;;;;;7.10;6.10;;;;;;;9.52;59.68;100645.84;4966509;28;98183;-61
2021/01/27 02:17:29;;;;;;;7.85;6.68;;;;;;;9.52;59.78;100651.22;4977462;27;114210;-60
2021/01/27 02:20:17;;;;;;;7.15;6.30;;;;;;;9.53;59.91;100657.41;4986438;27;99950;-61
2021/01/27 02:23:14;;;;;;;7.57;6.50;;;;;;;9.50;59.96;100647.94;5000693;27;122360;-60
2021/01/27 02:26:13;;;;;;;7.55;6.05;;;;;;;9.53;60.44;100650.13;4997988;27;98113;-61
2021/01/27 02:28:57;;;;;;;6.88;6.18;;;;;;;9.50;59.90;100653.34;4982479;28;98044;-61
2021/01/27 02:31:27;;;;;;;6.95;6.22;;;;;;;9.53;60.01;100649.34;4982897;27;98825;-60
2021/01/27 02:34:38;;;;;;;6.78;5.97;;;;;;;9.54;59.71;100651.75;4980878;27;98779;-61
2021/01/27 02:37:07;;;;;;;6.97;5.80;;;;;;;9.56;60.40;100655.00;4985820;27;119924;-60
2021/01/27 02:39:34;;;;;;;7.03;6.32;;;;;;;9.57;59.90;100653.13;4967043;27;115397;-61
2021/01/27 02:42:16;;;;;;;6.80;6.03;;;;;;;9.57;59.97;100655.81;5000341;27;98428;-61
2021/01/27 02:45:06;;;;;;;6.60;5.85;;;;;;;9.61;59.64;100648.88;4999765;27;122975;-61
2021/01/27 02:47:42;;;;;;;6.90;5.97;;;;;;;9.68;59.48;100649.47;4972495;27;98112;-61
2021/01/27 02:50:18;;;;;;;6.28;5.68;;;;;;;9.70;58.76;100651.88;4967851;27;114728;-61
2021/01/27 02:52:55;;;;;;;6.68;5.93;;;;;;;9.73;58.66;100646.00;4983230;27;126133;-61
2021/01/27 02:55:27;;;;;;;6.47;5.72;;;;;;;9.77;59.20;100652.50;4968799;27;98285;-61
2021/01/27 02:58:13;;;;;;;6.80;6.07;;;;;;;9.77;59.13;100653.31;4968158;27;98757;-61
2021/01/27 03:00:43;;;;;;;6.80;6.10;;;;;;;9.76;59.27;100651.69;4983742;27;97974;-61
2021/01/27 03:03:23;;;;;;;6.07;5.47;;;;;;;9.79;59.34;100648.47;4999725;27;108622;-61
2021/01/27 03:05:59;;;;;;;6.70;5.75;;;;;;;9.79;58.64;100651.19;4999171;27;123556;-61
2021/01/27 03:08:33;;;;;;;6.30;5.60;;;;;;;9.79;58.95;100644.97;4984007;27;121350;-61
2021/01/27 03:11:12;;;;;;;6.28;5.68;;;;;;;9.82;58.96;100652.53;4983727;27;97942;-61
2021/01/27 03:13:39;;;;;;;6.88;6.18;;;;;;;9.82;58.90;100644.44;4982321;27;99197;-61
2021/01/27 03:16:08;;;;;;;6.15;5.43;;;;;;;9.83;58.70;100641.50;4979442;28;121781;-60
2021/01/27 03:18:36;;;;;;;6.22;5.63;;;;;;;9.82;59.13;100642.59;4976205;27;99337;-60
2021/01/27 03:21:06;;;;;;;6.53;5.93;;;;;;;9.83;58.54;100646.09;5001506;27;97752;-61
2021/01/27 03:23:55;;;;;;;6.45;5.63;;;;;;;9.78;58.95;100644.16;4983470;27;117128;-61
2021/01/27 03:26:45;;;;;;;7.47;6.07;;;;;;;9.79;58.50;100658.44;4999670;27;123301;-61
2021/01/27 03:29:41;;;;;;;8.38;6.05;;;;;;;9.78;58.88;100651.41;4983590;27;122421;-61
2021/01/27 03:32:19;;;;;;;7.32;6.20;;;;;;;9.72;58.27;100650.56;4987474;27;97772;-60
2021/01/27 03:34:49;;;;;;;7.07;6.22;;;;;;;9.71;59.33;100659.72;4980027;27;124120;-61
2021/01/27 03:37:31;;;;;;;7.22;6.18;;;;;;;9.70;58.86;100650.00;4963699;28;98442;-61
2021/01/27 03:40:03;;;;;;;7.28;6.10;;;;;;;9.74;58.60;100655.69;4979743;28;98084;-61
2021/01/27 03:43:08;;;;;;;6.43;5.68;;;;;;;9.72;58.69;100655.16;4963852;28;97740;-61
2021/01/27 03:45:36;;;;;;;7.38;6.22;;;;;;;9.72;58.84;100655.16;4967057;28;98380;-61
2021/01/27 03:48:10;;;;;;;6.63;5.72;;;;;;;9.68;59.24;100651.34;4963355;28;99330;-60
2021/01/27 03:50:36;;;;;;;7.95;6.07;;;;;;;9.71;58.91;100648.16;4999389;27;97883;-61
2021/01/27 03:53:07;;;;;;;6.95;5.90;;;;;;;9.69;58.54;100651.09;4953448;28;118046;-62
2021/01/27 03:55:51;;;;;;;7.03;6.10;;;;;;;9.69;59.14;100650.28;4962508;27;123860;-61
2021/01/27 03:58:31;;;;;;;7.13;6.10;;;;;;;9.67;59.22;100647.84;4981371;27;98163;-61
2021/01/27 04:01:09;;;;;;;7.10;6.20;;;;;;;9.67;58.92;100647.84;4979088;28;98718;-60
2021/01/27 04:03:35;;;;;;;6.45;5.60;;;;;;;9.69;58.58;100647.59;4979530;28;98112;-61
2021/01/27 04:06:02;;;;;;;7.50;6.20;;;;;;;9.65;59.06;100647.28;4995923;27;105910;-61
2021/01/27 04:08:28;;;;;;;6.70;6.07;;;;;;;9.66;58.66;100648.91;4980396;27;124511;-61
2021/01/27 04:10:54;;;;;;;7.00;6.05;;;;;;;9.66;58.84;100645.41;4996307;27;127240;-60
2021/01/27 04:13:20;;;;;;;6.57;5.97;;;;;;;9.65;58.62;100654.53;5001074;27;117662;-61
2021/01/27 04:15:46;;;;;;;7.55;5.93;;;;;;;9.68;58.44;100659.44;4982414;27;104122;-61
2021/01/27 04:18:13;;;;;;;7.43;6.10;;;;;;;9.68;58.35;100660.22;4981948;27;120485;-61
2021/01/27 04:20:39;;;;;;;6.75;5.82;;;;;;;9.65;58.62;100662.63;4981343;27;127469;-60
2021/01/27 04:23:05;;;;;;;6.75;5.97;;;;;;;9.66;58.29;100656.97;4982601;27;113614;-62
2021/01/27 04:25:31;;;;;;;6.53;5.80;;;;;;;9.68;59.03;100654.03;4998694;27;126792;-61
2021/01/27 04:27:57;;;;;;;6.78;5.68;;;;;;;9.67;58.17;100657.78;4997700;27;129143;-61
2021/01/27 04:30:32;;;;;;;6.88;6.10;;;;;;;9.66;58.07;100648.09;5000454;27;127606;-61
2021/01/27 04:32:59;;;;;;;7.50;6.50;;;;;;;9.67;58.68;100649.69;4999687;27;97783;-61
2021/01/27 04:35:26;;;;;;;7.35;5.75;;;;;;;9.66;58.97;100648.91;4998717;27;111715;-60
2021/01/27 04:37:52;;;;;;;7.80;6.05;;;;;;;9.66;58.39;100648.91;4982845;27;98510;-62
2021/01/27 04:40:32;;;;;;;7.75;6.38;;;;;;;9.66;58.68;100648.91;4998125;27;124803;-61
2021/01/27 04:42:59;;;;;;;8.00;5.78;;;;;;;9.68;58.71;100649.47;5000050;27;97666;-61
2021/01/27 04:45:25;;;;;;;6.95;6.00;;;;;;;9.66;58.57;100645.41;4982125;27;98651;-61
2021/01/27 04:48:23;;;;;;;6.75;5.93;;;;;;;9.65;58.35;100641.09;4980801;27;98957;-61
2021/01/27 04:50:53;;;;;;;7.07;6.15;;;;;;;9.64;58.35;100636.78;4978074;28;120904;-61
2021/01/27 04:53:47;;;;;;;6.80;5.85;;;;;;;9.64;58.09;100640.28;4979115;27;97988;-61
2021/01/27 04:56:48;;;;;;;6.78;5.80;;;;;;;9.64;58.48;100642.16;4948267;28;100174;-61
2021/01/27 05:00:02;;;;;;;6.20;5.60;;;;;;;9.62;59.19;100638.91;4945829;28;126730;-61
2021/01/27 05:02:56;;;;;;;6.38;5.65;;;;;;;9.60;58.73;100633.78;4938645;28;98541;-60
2021/01/27 05:05:32;;;;;;;6.68;5.72;;;;;;;9.64;58.68;100642.16;4939174;28;98149;-60
2021/01/27 05:08:44;;;;;;;7.22;5.95;;;;;;;9.61;58.70;100634.59;4938587;28;123040;-61
2021/01/27 05:11:10;;;;;;;6.35;5.55;;;;;;;9.63;58.46;100629.75;4906436;28;98505;-60
2021/01/27 05:13:43;;;;;;;7.00;5.75;;;;;;;9.61;58.13;100629.22;4884113;28;127608;-61
2021/01/27 05:16:19;;;;;;;6.35;5.22;;;;;;;9.61;58.56;100629.22;4920143;28;113822;-60
2021/01/27 05:18:45;;;;;;;5.90;5.30;;;;;;;9.60;58.82;100623.03;4951100;28;98608;-60
2021/01/27 05:21:38;;;;;;;6.43;5.68;;;;;;;9.62;58.04;100622.75;4945837;28;126933;-61
2021/01/27 05:24:06;;;;;;;6.47;5.75;;;;;;;9.65;58.24;100608.78;4961822;28;97962;-61
2021/01/27 05:26:50;;;;;;;7.00;5.38;;;;;;;9.59;58.58;100616.03;4964352;28;97778;-60
2021/01/27 05:29:41;;;;;;;5.90;5.00;;;;;;;9.58;58.78;100615.19;4947152;28;98487;-61
2021/01/27 05:32:15;;;;;;;5.28;4.78;;;;;;;9.58;58.49;100612.50;4962706;28;98230;-61
2021/01/27 05:34:50;;;;;;;6.18;5.25;;;;;;;9.62;58.60;100601.22;4962177;28;98358;-60
2021/01/27 05:37:28;;;;;;;6.63;5.03;;;;;;;9.59;58.77;100606.06;4943894;28;98169;-61
2021/01/27 05:40:34;;;;;;;7.50;5.40;;;;;;;9.61;59.02;100603.09;4943162;28;98206;-60
2021/01/27 05:43:15;;;;;;;7.25;5.28;;;;;;;9.63;58.59;100600.97;4903846;28;98507;-61
2021/01/27 05:45:48;;;;;;;5.90;4.97;;;;;;;9.62;58.95;100595.84;4909641;28;98176;-61
2021/01/27 05:48:27;;;;;;;6.38;5.25;;;;;;;9.58;58.62;100599.03;4944211;28;97613;-60
2021/01/27 05:51:06;;;;;;;6.72;5.30;;;;;;;9.59;58.29;100600.69;4943217;28;98730;-61
2021/01/27 05:53:33;;;;;;;6.38;5.10;;;;;;;9.61;58.79;100600.41;4943979;28;97787;-61
2021/01/27 05:56:18;;;;;;;6.32;5.43;;;;;;;9.58;58.50;100603.63;4961098;28;112525;-61
2021/01/27 05:59:03;;;;;;;5.97;5.07;;;;;;;9.58;58.53;100600.94;4983890;27;97634;-61
2021/01/27 06:01:42;;;;;;;6.88;5.35;;;;;;;9.58;58.57;100607.13;4982706;27;98263;-61
2021/01/27 06:04:12;;;;;;;6.80;5.40;;;;;;;9.57;58.51;100607.38;4981198;28;98390;-61
2021/01/27 06:06:54;;;;;;;6.47;5.35;;;;;;;9.55;58.52;100607.66;4982618;27;97801;-61
2021/01/27 06:09:48;;;;;;;6.28;5.40;;;;;;;9.56;58.57;100605.75;4984213;27;97934;-61
2021/01/27 06:12:20;;;;;;;7.95;5.38;;;;;;;9.58;59.28;100599.03;4999302;27;122197;-61
2021/01/27 06:15:25;;;;;;;6.55;5.55;;;;;;;9.53;58.38;100587.44;5001424;27;98834;-61
2021/01/27 06:17:51;;;;;;;6.35;5.47;;;;;;;9.56;58.49;100595.81;4998205;27;123902;-61
2021/01/27 06:20:17;;;;;;;7.18;5.57;;;;;;;9.57;59.09;100596.63;5003085;27;116511;-61
2021/01/27 06:23:32;;;;;;;5.63;5.00;;;;;;;9.52;59.05;100599.28;5003060;27;98830;-61
2021/01/27 06:26:51;;;;;;;6.18;5.40;;;;;;;9.53;58.58;100598.19;4988599;27;98543;-61
2021/01/27 06:29:49;;;;;;;6.90;5.65;;;;;;;9.53;59.01;100600.91;4982672;27;98290;-61
2021/01/27 06:32:37;;;;;;;6.43;5.15;;;;;;;9.53;58.73;100595.50;4981001;28;97850;-61
2021/01/27 06:35:12;;;;;;;7.13;5.43;;;;;;;9.53;59.32;100596.31;4958428;28;99635;-60
2021/01/27 06:38:05;;;;;;;7.32;5.35;;;;;;;9.46;59.07;100590.34;4981552;27;122801;-61
2021/01/27 06:40:46;;;;;;;6.72;5.85;;;;;;;9.50;59.46;100596.81;4964826;28;97984;-61
2021/01/27 06:43:33;;;;;;;6.13;5.38;;;;;;;9.47;58.57;100602.75;4984249;27;97852;-61
2021/01/27 06:46:29;;;;;;;6.90;6.18;;;;;;;9.47;59.14;100607.28;4980766;28;98249;-61
2021/01/27 06:49:24;;;;;;;7.18;5.88;;;;;;;9.48;58.72;100608.94;4982802;27;98863;-61
2021/01/27 06:52:27;;;;;;;6.72;5.70;;;;;;;9.49;58.77;100610.53;4979935;28;98263;-60
2021/01/27 06:55:22;;;;;;;8.15;6.55;;;;;;;9.48;58.68;100611.63;4964182;28;114789;-61
2021/01/27 06:58:34;;;;;;;6.85;5.57;;;;;;;9.50;58.89;100609.47;4980750;28;98425;-61
2021/01/27 07:01:47;;;;;;;7.43;6.13;;;;;;;9.48;59.47;100623.19;5000447;27;98134;-61
2021/01/27 07:04:35;;;;;;;8.20;6.70;;;;;;;9.49;59.16;100615.94;5000740;27;98169;-61
2021/01/27 07:07:36;;;;;;;9.95;7.57;;;;;;;9.50;59.16;100618.34;4991644;27;99389;-61
2021/01/27 07:10:33;;;;;;;9.88;7.15;;;;;;;9.52;59.27;100618.91;4981443;28;98498;-61
2021/01/27 07:13:31;;;;;;;9.02;7.30;;;;;;;9.56;58.98;100625.41;4980716;28;99240;-61
2021/01/27 07:16:28;;;;;;;10.55;7.68;;;;;;;9.58;58.84;100611.69;4979619;27;120379;-61
2021/01/27 07:19:28;;;;;;;8.93;7.15;;;;;;;9.66;58.58;100621.97;4967088;28;98330;-61
2021/01/27 07:21:59;;;;;;;7.90;6.90;;;;;;;9.68;58.87;100614.47;4980185;28;98495;-62
2021/01/27 07:24:36;;;;;;;9.68;6.97;;;;;;;9.66;59.30;100608.53;4979074;28;124277;-61
2021/01/27 07:27:19;;;;;;;8.52;6.97;;;;;;;9.68;59.21;100614.47;4979811;28;125773;-61
2021/01/27 07:30:03;;;;;;;9.77;7.75;;;;;;;9.70;59.36;100608.81;4981531;28;99011;-60
2021/01/27 07:32:43;;;;;;;8.90;7.07;;;;;;;9.73;59.42;100611.00;4963865;28;122660;-61
2021/01/27 07:35:22;;;;;;;9.52;6.88;;;;;;;9.75;59.62;100614.25;4964229;28;102571;-61
2021/01/27 07:38:01;;;;;;;8.80;7.30;;;;;;;9.79;60.24;100618.06;4964378;28;98254;-61
2021/01/27 07:40:45;;;;;;;9.63;7.47;;;;;;;9.79;59.71;100618.88;4981061;28;98057;-60
2021/01/27 07:43:44;;;;;;;8.25;6.90;;;;;;;9.86;60.60;100615.94;4965486;27;98430;-61
2021/01/27 07:46:11;;;;;;;8.85;7.13;;;;;;;9.89;60.58;100617.31;4974934;27;99211;-62
2021/01/27 07:49:08;;;;;;;8.15;7.05;;;;;;;9.89;60.48;100622.69;4982415;27;120410;-61
2021/01/27 07:51:57;;;;;;;8.55;7.28;;;;;;;9.92;60.56;100625.69;4993735;27;98900;-61
2021/01/27 07:54:39;;;;;;;8.35;7.00;;;;;;;9.99;60.19;100620.09;4962818;28;117009;-61
2021/01/27 07:57:47;;;;;;;8.80;7.05;;;;;;;9.99;61.06;100615.50;4963826;28;122730;-61
2021/01/27 08:01:03;;;;;;;8.60;7.28;;;;;;;10.02;61.08;100609.59;4966615;28;97927;-61
2021/01/27 08:03:41;;;;;;;9.50;7.60;;;;;;;10.09;60.87;100620.94;4970820;27;98146;-60
2021/01/27 08:06:17;;;;;;;9.48;7.30;;;;;;;10.13;61.02;100612.34;4980661;27;98890;-61
2021/01/27 08:08:55;;;;;;;8.32;7.28;;;;;;;10.19;61.18;100620.19;4979739;28;113194;-61
2021/01/27 08:11:50;;;;;;;8.48;7.25;;;;;;;10.28;61.22;100620.53;4973854;28;107853;-61
2021/01/27 08:14:16;;;;;;;7.85;7.05;;;;;;;10.38;61.12;100623.31;4965832;28;97989;-61
2021/01/27 08:16:44;;;;;;;9.10;6.85;;;;;;;10.48;61.07;100627.91;4962453;28;99031;-61
2021/01/27 08:19:13;;;;;;;8.00;7.18;;;;;;;10.48;61.72;100625.22;4994896;27;99058;-61
2021/01/27 08:21:45;;;;;;;7.72;6.82;;;;;;;10.50;60.94;100625.78;5002224;27;97937;-60
2021/01/27 08:24:36;;;;;;;8.15;6.75;;;;;;;10.40;61.47;100629.22;5001399;27;98232;-61
2021/01/27 08:27:30;;;;;;;7.47;6.70;;;;;;;10.38;61.61;100633.28;4988522;27;98186;-61
2021/01/27 08:29:56;;;;;;;8.00;6.55;;;;;;;10.41;61.20;100627.34;4984026;27;99147;-61
2021/01/27 08:32:35;;;;;;;7.93;6.60;;;;;;;10.37;61.74;100628.94;4984882;27;98498;-61
2021/01/27 08:35:07;;;;;;;7.18;6.40;;;;;;;10.42;61.85;100634.38;4987733;27;102437;-60
2021/01/27 08:37:39;;;;;;;7.70;6.90;;;;;;;10.43;62.33;100633.28;4990134;27;98331;-60
2021/01/27 08:40:27;;;;;;;7.32;6.47;;;;;;;10.53;61.85;100628.75;4987803;27;124456;-61
2021/01/27 08:42:55;;;;;;;9.90;7.40;;;;;;;10.59;62.11;100626.09;4979532;27;98040;-61
2021/01/27 08:45:21;;;;;;;8.40;6.70;;;;;;;10.61;62.62;100627.44;4964628;28;97981;-61
2021/01/27 08:47:50;;;;;;;7.43;6.25;;;;;;;10.62;62.00;100620.97;4980375;27;98533;-61
2021/01/27 08:50:46;;;;;;;7.10;6.35;;;;;;;10.65;62.23;100620.47;4981252;27;108735;-60
2021/01/27 08:53:51;;;;;;;7.88;7.00;;;;;;;10.63;62.55;100609.13;4982155;27;98096;-61
2021/01/27 08:56:17;;;;;;;8.27;6.90;;;;;;;10.63;62.92;100619.91;4981196;27;97990;-61
2021/01/27 08:58:49;;;;;;;7.70;6.85;;;;;;;10.61;62.46;100615.84;4981059;27;127885;-61
2021/01/27 09:01:23;;;;;;;7.82;7.03;;;;;;;10.57;62.38;100611.00;4993069;27;98677;-61
2021/01/27 09:03:52;;;;;;;7.72;6.60;;;;;;;10.63;62.21;100611.00;5003941;27;98077;-61
2021/01/27 09:06:44;;;;;;;8.52;6.80;;;;;;;10.63;62.47;100605.63;4998923;27;99222;-60
2021/01/27 09:09:33;;;;;;;7.90;7.10;;;;;;;10.63;62.87;100605.63;4967681;28;98493;-61
2021/01/27 09:12:08;;;;;;;8.00;7.18;;;;;;;10.68;63.11;100597.53;5001830;27;98656;-61
2021/01/27 09:14:34;;;;;;;7.18;6.47;;;;;;;10.68;62.78;100595.66;5004180;27;97962;-61
2021/01/27 09:17:02;;;;;;;7.50;6.55;;;;;;;10.75;63.05;100598.09;5003159;27;97812;-61
2021/01/27 09:19:29;;;;;;;7.30;6.47;;;;;;;10.80;62.74;100598.09;4985033;27;98212;-61
2021/01/27 09:22:16;;;;;;;7.47;6.70;;;;;;;10.88;62.77;100594.09;5002407;27;97959;-60
2021/01/27 09:24:45;;;;;;;6.90;6.05;;;;;;;10.94;62.23;100588.44;5003269;27;97850;-61
2021/01/27 09:27:29;;;;;;;7.85;7.05;;;;;;;10.98;62.32;100588.72;5002277;27;97945;-60
2021/01/27 09:30:11;;;;;;;6.65;6.03;;;;;;;10.97;62.74;100590.63;4983067;27;99436;-60
2021/01/27 09:32:37;;;;;;;8.23;6.70;;;;;;;10.97;62.66;100585.22;4983199;27;99401;-61
2021/01/27 09:35:28;;;;;;;7.22;6.38;;;;;;;10.92;63.25;100574.41;4982033;27;122730;-60
2021/01/27 09:38:19;;;;;;;7.55;6.80;;;;;;;10.85;63.81;100575.75;4983375;28;117433;-61
2021/01/27 09:40:51;;;;;;;7.10;6.40;;;;;;;10.82;63.78;100583.28;4982952;27;98331;-60
2021/01/27 09:43:20;;;;;;;7.32;6.47;;;;;;;10.88;63.67;100581.41;4983401;27;110419;-61
2021/01/27 09:45:50;;;;;;;7.78;6.15;;;;;;;10.93;63.50;100573.34;4978844;27;98196;-61
2021/01/27 09:48:21;;;;;;;7.45;6.40;;;;;;;10.98;63.50;100576.03;5001298;27;115632;-61
2021/01/27 09:51:14;;;;;;;6.93;6.00;;;;;;;11.08;62.94;100569.84;4984941;27;98459;-60
2021/01/27 09:53:40;;;;;;;7.47;6.45;;;;;;;11.13;62.48;100577.97;4980909;27;99051;-61
2021/01/27 09:56:08;;;;;;;7.07;6.30;;;;;;;11.19;62.04;100579.56;4966897;27;125292;-60
2021/01/27 09:58:40;;;;;;;7.35;6.47;;;;;;;11.21;62.42;100582.81;4985643;27;97975;-60
2021/01/27 10:01:09;;;;;;;7.40;6.40;;;;;;;11.18;62.99;100575.25;5000313;27;98468;-61
2021/01/27 10:03:40;;;;;;;7.05;6.03;;;;;;;11.20;62.84;100575.81;4996369;27;112030;-61
2021/01/27 10:06:32;;;;;;;7.78;6.32;;;;;;;11.28;62.33;100575.28;4981662;28;98634;-61
2021/01/27 10:08:59;;;;;;;7.03;5.90;;;;;;;11.31;62.95;100565.81;4983231;27;97839;-61
2021/01/27 10:11:33;;;;;;;7.00;6.30;;;;;;;11.37;63.00;100572.03;4964258;28;98914;-61
2021/01/27 10:14:08;;;;;;;7.03;6.32;;;;;;;11.43;62.17;100568.25;4982882;28;98714;-61
2021/01/27 10:16:56;;;;;;;6.85;6.15;;;;;;;11.47;62.45;100570.13;4980487;28;120563;-61
2021/01/27 10:19:47;;;;;;;6.95;6.25;;;;;;;11.52;62.66;100561.25;4990478;27;97974;-60
2021/01/27 10:22:13;;;;;;;6.70;6.00;;;;;;;11.64;62.22;100558.25;5003244;27;98234;-61
2021/01/27 10:24:48;;;;;;;7.05;6.35;;;;;;;11.73;62.11;100559.31;5001383;27;123526;-61
2021/01/27 10:27:34;;;;;;;6.65;5.95;;;;;;;11.74;62.52;100547.44;4983137;27;98009;-61
2021/01/27 10:30:14;;;;;;;6.93;6.25;;;;;;;11.75;62.31;100551.75;4983609;27;98035;-61
2021/01/27 10:32:43;;;;;;;6.72;6.03;;;;;;;11.83;62.25;100539.56;4983507;27;98798;-60
2021/01/27 10:35:24;;;;;;;7.05;6.35;;;;;;;11.94;61.85;100543.91;4947676;28;98844;-61
2021/01/27 10:38:15;;;;;;;7.65;6.55;;;;;;;12.06;61.57;100547.13;5001052;27;98192;-60
2021/01/27 10:41:07;;;;;;;6.93;6.13;;;;;;;12.22;61.29;100542.47;5003231;27;97948;-61
2021/01/27 10:43:33;;;;;;;6.93;6.18;;;;;;;12.42;61.06;100550.50;5002669;27;99210;-61
2021/01/27 10:45:59;;;;;;;6.93;5.88;;;;;;;12.77;60.40;100541.41;5000759;27;98779;-61
2021/01/27 10:48:29;;;;;;;6.90;6.20;;;;;;;12.94;60.04;100537.50;5000629;27;98026;-61
2021/01/27 10:51:07;;;;;;;6.22;5.63;;;;;;;13.12;59.98;100526.00;5000929;27;98048;-61
2021/01/27 10:53:42;;;;;;;6.68;5.97;;;;;;;13.29;59.84;100525.63;4983079;27;99530;-61
2021/01/27 10:56:08;;;;;;;6.45;5.82;;;;;;;13.49;59.45;100514.63;5000968;27;98100;-62
2021/01/27 10:58:34;;;;;;;7.13;6.13;;;;;;;13.53;59.60;100522.19;4999813;27;124505;-61
2021/01/27 11:01:00;;;;;;;5.95;5.38;;;;;;;13.39;59.93;100522.81;4993257;27;115814;-62
2021/01/27 11:03:26;;;;;;;6.15;5.28;;;;;;;13.33;60.04;100515.06;4980724;28;127662;-61
2021/01/27 11:05:52;;;;;;;5.63;5.13;;;;;;;13.21;60.61;100515.38;4979174;28;127832;-61
2021/01/27 11:08:31;;;;;;;6.25;4.90;;;;;;;13.22;61.13;100501.56;4964189;28;98068;-61
2021/01/27 11:10:57;;;;;;;5.50;5.00;;;;;;;13.30;60.56;100500.16;4967081;28;98044;-61
2021/01/27 11:13:23;;;;;;;6.07;5.00;;;;;;;13.38;60.95;100498.75;4980515;27;103612;-61
2021/01/27 11:15:50;;;;;;;5.55;4.50;;;;;;;13.43;60.66;100491.38;4981481;28;126759;-61
2021/01/27 11:18:16;;;;;;;5.38;4.60;;;;;;;13.47;60.87;100489.72;4979102;28;128067;-61
2021/01/27 11:20:42;;;;;;;5.75;4.75;;;;;;;13.51;60.91;100501.59;4982027;27;98041;-61
2021/01/27 11:23:08;;;;;;;4.85;4.32;;;;;;;13.43;61.00;100491.38;4981063;28;128504;-61
2021/01/27 11:25:34;;;;;;;5.65;4.70;;;;;;;13.36;61.48;100485.50;4981273;27;128371;-61
2021/01/27 11:28:00;;;;;;;4.93;4.43;;;;;;;13.37;61.07;100489.81;4982811;27;126645;-61
2021/01/27 11:30:28;;;;;;;4.90;4.07;;;;;;;13.40;60.86;100474.88;4999883;27;118356;-61
2021/01/27 11:32:55;;;;;;;5.20;4.50;;;;;;;13.39;60.78;100476.00;4981688;27;119276;-61
2021/01/27 11:35:21;;;;;;;4.60;4.20;;;;;;;13.45;60.71;100472.16;4962855;28;109745;-61
2021/01/27 11:37:48;;;;;;;4.75;4.25;;;;;;;13.58;60.38;100470.66;4981043;28;97903;-61
2021/01/27 11:40:15;;;;;;;4.38;3.97;;;;;;;13.48;60.59;100469.69;4981884;27;97905;-61
2021/01/27 11:42:41;;;;;;;4.70;4.22;;;;;;;13.54;60.48;100472.34;4981330;27;98429;-61
2021/01/27 11:45:09;;;;;;;4.72;4.22;;;;;;;13.54;60.72;100472.34;4981612;27;122030;-61
2021/01/27 11:47:35;;;;;;;4.13;3.72;;;;;;;13.51;60.70;100471.78;5001461;27;98550;-61
2021/01/27 11:50:02;;;;;;;4.60;3.95;;;;;;;13.55;60.53;100461.19;5000566;27;117031;-61
2021/01/27 11:52:28;;;;;;;3.90;3.60;;;;;;;13.74;60.43;100462.06;5000774;27;123195;-61
2021/01/27 11:54:54;;;;;;;4.50;3.95;;;;;;;13.81;60.37;100464.44;4999872;27;128510;-61
2021/01/27 11:57:20;;;;;;;4.30;3.67;;;;;;;13.73;60.84;100460.47;5001734;27;97870;-61
2021/01/27 11:59:46;;;;;;;4.97;4.00;;;;;;;13.61;61.12;100468.19;5001447;27;97742;-60
2021/01/27 12:02:12;;;;;;;4.43;3.80;;;;;;;13.49;61.38;100457.75;5000393;27;128145;-61
2021/01/27 12:04:39;;;;;;;4.35;3.72;;;;;;;13.38;62.01;100463.56;4983502;27;98850;-61
2021/01/27 12:07:06;;;;;;;4.35;3.95;;;;;;;13.20;61.97;100460.44;4979053;28;115531;-61
2021/01/27 12:09:35;;;;;;;4.63;3.88;;;;;;;13.10;62.28;100460.53;4981760;27;97888;-61
2021/01/27 12:12:06;;;;;;;4.38;3.97;;;;;;;12.95;62.87;100458.75;4981579;27;98345;-61